Snake River Valley :: Plymouth B1

liberation: 2021-09-25  08:33     latitude: 41.885397     longitude: -112.168582 35 birds
# LOFT PRING MILES ARRIVAL SPEED ToWin
1 M&T Wall AU21-SRV-0371 121.649 2021-09-25 11:03:59.792 1417.929 00:00:00
2 M&T Wall AU21-SRV-0038 121.649 2021-09-25 11:04:00.985 1417.742 00:00:01
3 M&T Wall AU21-SRV-0370 121.649 2021-09-25 11:04:01.373 1417.681 00:00:02
4 M&T Wall AU21-SRV-0023 121.649 2021-09-25 11:04:02.539 1417.499 00:00:03
5 M&T Wall AU21-SRV-0357 121.649 2021-09-25 11:04:02.926 1417.438 00:00:03
6 M&T Wall AU21-SRV-0016 121.649 2021-09-25 11:04:03.454 1417.356 00:00:04
7 M&T Wall AU21-SRV-0033 121.649 2021-09-25 11:04:03.588 1417.335 00:00:04
8 M&T Wall AU21-SRV-0351 121.649 2021-09-25 11:04:03.713 1417.315 00:00:04
9 M&T Wall AU21-SRV-0003 121.649 2021-09-25 11:04:04.204 1417.239 00:00:04
10 M&T Wall AU21-SRV-0019 121.649 2021-09-25 11:04:04.459 1417.199 00:00:05
11 M&T Wall AU21-SRV-0049 121.649 2021-09-25 11:04:04.976 1417.118 00:00:05
12 M&T Wall AU21-SRV-0365 121.649 2021-09-25 11:04:05.103 1417.098 00:00:05
13 M&T Wall AU21-SRV-0369 121.649 2021-09-25 11:04:06.241 1416.920 00:00:06
14 M&T Wall AU21-SRV-0006 121.649 2021-09-25 11:04:09.432 1416.422 00:00:10
15 M&T Wall AU21-SRV-0017 121.649 2021-09-25 11:04:10.810 1416.206 00:00:11
16 M&T Wall AU21-SRV-0008 121.649 2021-09-25 11:04:14.283 1415.664 00:00:14
17 Acorn Loft AU21-ARPU-1732 109.818 2021-09-25 10:51:59.431 1390.598 00:02:41
18 Acorn Loft AU21-ARPU-1726 109.818 2021-09-25 10:55:01.938 1360.817 00:05:43
19 Acorn Loft AU21-ARPU-1712 109.818 2021-09-25 10:55:04.773 1360.364 00:05:46
20 Acorn Loft AU21-ARPU-1736 109.818 2021-09-25 10:55:23.193 1357.431 00:06:05
21 Acorn Loft AU21-ARPU-1720 109.818 2021-09-25 10:55:35.743 1355.440 00:06:17
22 Acorn Loft AU21-ARPU-1716 109.818 2021-09-25 10:55:43.953 1354.141 00:06:25
23 Acorn Loft AU21-ARPU-1718 109.818 2021-09-25 10:55:49.299 1353.296 00:06:31
24 Acorn Loft AU21-ARPU-1719 109.818 2021-09-25 10:55:54.074 1352.542 00:06:35
25 Acorn Loft AU21-ARPU-1728 109.818 2021-09-25 10:56:30.232 1346.862 00:07:12
26 M&T Wall AU21-SRV-0383 121.649 2021-09-25 11:14:57.670 1321.936 00:10:58
27 Acorn Loft AU21-ARPU-1733 109.818 2021-09-25 10:59:15.590 1321.484 00:09:57
28 Acorn Loft AU21-ARPU-1711 109.818 2021-09-25 11:00:34.933 1309.643 00:11:16
29 Acorn Loft AU21-ARPU-1740 109.818 2021-09-25 11:00:36.690 1309.383 00:11:18
30 M&T Wall AU21-SRV-0361 121.649 2021-09-25 11:18:02.996 1297.197 00:14:03
31 M&T Wall AU21-SRV-0366 121.649 2021-09-25 11:18:09.609 1296.332 00:14:10
AU21-SRV-212 0 0000-00-00 00:00:00.000 0.000 00:00:00
AU21-SRV-241 0 0000-00-00 00:00:00.000 0.000 00:00:00
M&T Wall AU21-SRV-0024 0 0000-00-00 00:00:00.000 0.000 00:00:00
M&T Wall AU21-SRV-0375 0 0000-00-00 00:00:00.000 0.000 00:00:00